createdAt,value
2023-02-26T00:14:56.145Z,1
2023-02-26T00:43:57.927Z,0.7
2023-02-26T01:13:04.546Z,0.3
2023-02-26T01:42:04.959Z,0
2023-02-26T02:11:06.333Z,-0.2
2023-02-26T02:40:12.931Z,-0.5
2023-02-26T03:09:16.700Z,-0.6
2023-02-26T03:38:28.335Z,-0.8
2023-02-26T04:07:47.559Z,-1
2023-02-26T04:37:08.799Z,-1.1
2023-02-26T05:06:29.253Z,-1.2
2023-02-26T05:35:48.892Z,-1.4
2023-02-26T06:05:02.984Z,-1.5
2023-02-26T06:34:21.161Z,-1.6
2023-02-26T07:03:42.150Z,-1.5
2023-02-26T07:33:02.018Z,-1.3
2023-02-26T08:02:19.112Z,-0.9
2023-02-26T08:31:39.808Z,-0.3
2023-02-26T09:00:49.346Z,1.1
2023-02-26T09:30:06.928Z,1.8
2023-02-26T09:59:26.481Z,2.8
2023-02-26T10:28:48.950Z,2.3
2023-02-26T10:57:43.275Z,2.3
2023-02-26T11:27:03.327Z,2.5
2023-02-26T11:56:16.565Z,3
2023-02-26T12:25:24.894Z,3
2023-02-26T12:54:39.609Z,3.1
2023-02-26T13:23:47.328Z,2.9
2023-02-26T13:52:56.060Z,2.8
2023-02-26T14:22:04.007Z,3
2023-02-26T14:51:13.197Z,3.5
2023-02-26T15:20:31.561Z,5.4
2023-02-26T15:49:46.216Z,4.9
2023-02-26T16:19:09.052Z,4.6
2023-02-26T16:48:23.971Z,3.1
2023-02-26T17:17:28.935Z,2.2
2023-02-26T17:46:48.016Z,1.5
2023-02-26T18:15:57.455Z,1.1
2023-02-26T18:45:14.400Z,1.1
2023-02-26T19:14:18.694Z,1
2023-02-26T19:43:37.422Z,0.9
2023-02-26T20:12:54.630Z,0.7
2023-02-26T20:42:08.704Z,0.6
2023-02-26T21:11:26.666Z,0.6
2023-02-26T21:40:21.166Z,0.6
2023-02-26T22:09:33.238Z,0.5
2023-02-26T22:38:48.243Z,0.3
2023-02-26T23:07:59.478Z,0.1
2023-02-26T23:37:11.548Z,0.1
